Time;durP1;ratioP1;P1;durP2;ratioP2;P2;SDS_P1;SDS_P2;PMS_P1;PMS_P2;Temp;Humidity;BMP_temperature;BMP_pressure;BME280_temperature;BME280_humidity;BME280_pressure;Samples;Min_cycle;Max_cycle;Signal;HPM_P1;HPM_P2
2022/06/28 00:00:00;;;;;;;19.63;13.43;;;;;;;;;;5092490;28;20013;-68
2022/06/28 00:02:26;;;;;;;22.00;13.70;;;;;;;;;;5092271;28;20029;-68
2022/06/28 00:04:52;;;;;;;20.40;13.63;;;;;;;;;;5092334;28;20019;-64
2022/06/28 00:07:17;;;;;;;19.25;13.13;;;;;;;;;;5092035;28;20114;-70
2022/06/28 00:09:43;;;;;;;19.20;12.98;;;;;;;;;;5092085;28;20051;-66
2022/06/28 00:12:09;;;;;;;19.83;13.32;;;;;;;;;;5092187;28;20031;-69
2022/06/28 00:17:19;;;;;;;21.10;13.75;;;;;;;;;;5090381;28;20085;-65
2022/06/28 00:19:45;;;;;;;18.35;14.02;;;;;;;;;;5091888;28;20044;-65
2022/06/28 00:22:10;;;;;;;20.67;13.65;;;;;;;;;;5091812;28;20020;-66
2022/06/28 00:24:36;;;;;;;19.33;13.07;;;;;;;;;;5091704;28;20496;-65
2022/06/28 00:27:02;;;;;;;21.13;13.65;;;;;;;;;;5091788;28;20103;-65
2022/06/28 00:29:28;;;;;;;16.15;12.88;;;;;;;;;;5091865;28;20162;-66
2022/06/28 00:31:54;;;;;;;19.58;13.07;;;;;;;;;;5091976;28;20024;-68
2022/06/28 00:34:19;;;;;;;22.52;12.75;;;;;;;;;;5091846;28;20461;-69
2022/06/28 00:36:45;;;;;;;21.40;14.93;;;;;;;;;;5091677;28;20473;-65
2022/06/28 00:39:11;;;;;;;19.92;12.88;;;;;;;;;;5091637;28;20020;-66
2022/06/28 00:41:37;;;;;;;20.95;14.07;;;;;;;;;;5091631;28;20028;-63
2022/06/28 00:44:03;;;;;;;19.65;12.75;;;;;;;;;;5091597;28;20024;-64
2022/06/28 00:46:33;;;;;;;19.90;14.38;;;;;;;;;;5091471;28;20518;-70
2022/06/28 00:48:59;;;;;;;19.08;12.63;;;;;;;;;;5091464;28;20031;-67
2022/06/28 00:51:25;;;;;;;19.88;13.85;;;;;;;;;;5090048;28;20031;-66
2022/06/28 00:53:51;;;;;;;16.92;12.75;;;;;;;;;;5091629;28;20020;-63
2022/06/28 00:56:16;;;;;;;21.63;15.13;;;;;;;;;;5091368;28;20042;-64
2022/06/28 00:58:42;;;;;;;16.50;12.88;;;;;;;;;;5091455;28;20032;-65
2022/06/28 01:01:08;;;;;;;18.27;13.30;;;;;;;;;;5091626;28;20444;-68
2022/06/28 01:03:33;;;;;;;19.27;12.63;;;;;;;;;;5091446;28;20183;-64
2022/06/28 01:05:59;;;;;;;20.65;12.60;;;;;;;;;;5091408;28;20125;-64
2022/06/28 01:08:25;;;;;;;20.55;13.07;;;;;;;;;;5091695;28;20059;-67
2022/06/28 01:10:51;;;;;;;16.25;12.63;;;;;;;;;;5091657;28;20100;-65
2022/06/28 01:13:17;;;;;;;16.08;12.40;;;;;;;;;;5091823;28;20031;-65
2022/06/28 01:15:43;;;;;;;22.83;14.73;;;;;;;;;;5090401;28;20024;-64
2022/06/28 01:18:10;;;;;;;23.13;13.30;;;;;;;;;;5091555;28;20028;-62
2022/06/28 01:20:36;;;;;;;19.60;13.35;;;;;;;;;;5091452;28;20056;-65
2022/06/28 01:23:02;;;;;;;21.02;13.27;;;;;;;;;;5091652;28;20051;-66
2022/06/28 01:25:27;;;;;;;16.95;13.05;;;;;;;;;;5091465;28;20064;-66
2022/06/28 01:27:54;;;;;;;20.13;12.93;;;;;;;;;;5093331;28;20079;-67
2022/06/28 01:30:21;;;;;;;19.70;12.05;;;;;;;;;;5095723;28;20089;-67
2022/06/28 01:32:48;;;;;;;16.15;13.07;;;;;;;;;;5095662;28;20362;-65
2022/06/28 01:35:14;;;;;;;18.00;11.35;;;;;;;;;;5095310;28;20028;-67
2022/06/28 01:37:40;;;;;;;19.50;11.73;;;;;;;;;;5095570;28;20432;-68
2022/06/28 01:40:07;;;;;;;15.90;12.50;;;;;;;;;;5095499;28;20031;-68
2022/06/28 01:42:33;;;;;;;16.35;11.35;;;;;;;;;;5095591;28;20028;-68
2022/06/28 01:44:59;;;;;;;16.90;13.55;;;;;;;;;;5095461;28;20039;-68
2022/06/28 01:47:27;;;;;;;17.60;12.48;;;;;;;;;;5095259;28;20035;-69
2022/06/28 01:49:53;;;;;;;21.88;13.00;;;;;;;;;;5095104;28;20134;-68
2022/06/28 01:52:19;;;;;;;19.90;12.63;;;;;;;;;;5095463;28;20024;-69
2022/06/28 01:54:45;;;;;;;15.10;11.88;;;;;;;;;;5095126;28;20079;-69
2022/06/28 01:57:10;;;;;;;17.30;11.18;;;;;;;;;;5095138;28;20385;-69
2022/06/28 01:59:37;;;;;;;15.80;10.77;;;;;;;;;;5095052;28;20483;-69
2022/06/28 02:02:03;;;;;;;13.73;10.27;;;;;;;;;;5095065;28;20024;-68
2022/06/28 02:04:30;;;;;;;12.63;8.98;;;;;;;;;;5094943;28;20469;-69
2022/06/28 02:06:56;;;;;;;13.35;9.70;;;;;;;;;;5094796;28;20027;-70
2022/06/28 02:09:23;;;;;;;14.25;10.18;;;;;;;;;;5094903;28;20103;-69
2022/06/28 02:11:49;;;;;;;13.80;10.02;;;;;;;;;;5095148;28;20354;-69
2022/06/28 02:14:14;;;;;;;12.95;9.40;;;;;;;;;;5094779;28;20053;-68
2022/06/28 02:16:40;;;;;;;19.02;10.48;;;;;;;;;;5094718;28;20024;-67
2022/06/28 02:19:06;;;;;;;22.65;11.20;;;;;;;;;;5094514;28;20070;-66
2022/06/28 02:21:37;;;;;;;18.10;11.55;;;;;;;;;;5094616;28;20465;-67
2022/06/28 02:24:03;;;;;;;;;;;;;;;;;;5094840;28;20048;-67
2022/06/28 02:26:28;;;;;;;16.95;10.45;;;;;;;;;;5093165;28;19912;-67
2022/06/28 02:28:54;;;;;;;12.18;9.38;;;;;;;;;;5094429;28;20039;-66
2022/06/28 02:31:20;;;;;;;13.32;9.43;;;;;;;;;;5094701;28;20159;-67
2022/06/28 02:33:45;;;;;;;13.88;9.40;;;;;;;;;;5094121;28;20027;-66
2022/06/28 02:41:39;;;;;;;25.73;8.63;;;;;;;;;;5094419;28;20096;-66
2022/06/28 02:44:04;;;;;;;13.00;8.70;;;;;;;;;;5092886;28;20796;-66
2022/06/28 02:46:30;;;;;;;12.10;8.68;;;;;;;;;;5094275;28;20045;-67
2022/06/28 02:48:56;;;;;;;12.65;9.73;;;;;;;;;;5093851;28;20126;-67
2022/06/28 02:51:22;;;;;;;14.25;8.85;;;;;;;;;;5094147;28;20028;-62
2022/06/28 02:53:48;;;;;;;11.55;8.07;;;;;;;;;;5094085;28;20442;-63
2022/06/28 02:56:15;;;;;;;14.80;9.10;;;;;;;;;;5094033;28;20358;-67
2022/06/28 02:58:41;;;;;;;8.20;6.00;;;;;;;;;;5093945;28;20111;-63
2022/06/28 03:01:06;;;;;;;6.97;5.78;;;;;;;;;;5094017;28;20460;-63
2022/06/28 03:03:32;;;;;;;7.78;6.15;;;;;;;;;;5093812;28;20389;-63
2022/06/28 03:05:58;;;;;;;8.52;6.30;;;;;;;;;;5093845;28;20032;-62
2022/06/28 03:08:23;;;;;;;12.07;6.60;;;;;;;;;;5094076;28;20366;-65
2022/06/28 03:10:49;;;;;;;8.18;5.80;;;;;;;;;;5094497;28;20373;-64
2022/06/28 03:13:15;;;;;;;7.53;5.93;;;;;;;;;;5094253;28;20032;-65
2022/06/28 03:15:41;;;;;;;7.30;5.57;;;;;;;;;;5094260;28;20078;-61
2022/06/28 03:18:06;;;;;;;8.30;6.40;;;;;;;;;;5093523;28;20114;-63
2022/06/28 03:20:32;;;;;;;8.57;6.43;;;;;;;;;;5093523;28;20032;-64
2022/06/28 03:22:58;;;;;;;8.15;6.75;;;;;;;;;;5093653;28;20025;-65
2022/06/28 03:25:24;;;;;;;8.77;6.78;;;;;;;;;;5093278;28;20048;-65
2022/06/28 03:27:49;;;;;;;7.97;6.68;;;;;;;;;;5093713;28;20032;-63
2022/06/28 03:30:15;;;;;;;11.75;6.65;;;;;;;;;;5094068;28;20481;-62
2022/06/28 03:32:41;;;;;;;12.77;6.97;;;;;;;;;;5093717;28;20031;-64
2022/06/28 03:35:07;;;;;;;10.45;6.75;;;;;;;;;;5093939;28;20024;-63
2022/06/28 03:37:33;;;;;;;10.27;6.35;;;;;;;;;;5093871;28;20028;-63
2022/06/28 03:39:59;;;;;;;8.13;7.07;;;;;;;;;;5093817;28;20073;-66
2022/06/28 03:42:25;;;;;;;7.50;6.63;;;;;;;;;;5093882;28;20023;-65
2022/06/28 03:44:51;;;;;;;7.75;6.55;;;;;;;;;;5093551;28;20067;-66
2022/06/28 03:47:17;;;;;;;8.82;7.20;;;;;;;;;;5093265;28;20056;-66
2022/06/28 03:49:42;;;;;;;11.73;8.02;;;;;;;;;;5092966;28;20029;-69
2022/06/28 03:52:08;;;;;;;10.93;7.65;;;;;;;;;;5092867;28;20039;-69
2022/06/28 03:54:33;;;;;;;10.82;7.60;;;;;;;;;;5092992;28;20028;-66
2022/06/28 03:56:59;;;;;;;9.75;8.00;;;;;;;;;;5092970;28;20035;-67
2022/06/28 03:59:25;;;;;;;9.68;7.38;;;;;;;;;;5093599;28;20103;-66
2022/06/28 04:01:50;;;;;;;10.45;8.07;;;;;;;;;;5093353;28;20032;-66
2022/06/28 04:04:16;;;;;;;12.15;8.50;;;;;;;;;;5093421;28;20020;-66
2022/06/28 04:06:41;;;;;;;11.32;7.53;;;;;;;;;;5093282;28;20027;-66
2022/06/28 04:09:07;;;;;;;10.52;7.63;;;;;;;;;;5093285;28;20384;-68
2022/06/28 04:11:33;;;;;;;10.52;8.40;;;;;;;;;;5093391;28;20383;-65
2022/06/28 04:13:58;;;;;;;11.57;8.15;;;;;;;;;;5093221;28;20032;-65
2022/06/28 04:16:24;;;;;;;11.35;9.15;;;;;;;;;;5092871;28;20032;-67
2022/06/28 04:18:50;;;;;;;11.70;8.65;;;;;;;;;;5092378;28;20118;-65
2022/06/28 04:21:17;;;;;;;13.48;9.05;;;;;;;;;;5092496;28;20473;-65
2022/06/28 04:23:43;;;;;;;13.07;9.20;;;;;;;;;;5092264;28;20040;-66
2022/06/28 04:26:09;;;;;;;10.27;8.40;;;;;;;;;;5092723;28;20097;-65
2022/06/28 04:28:36;;;;;;;11.65;8.75;;;;;;;;;;5092903;28;20438;-65
2022/06/28 04:31:02;;;;;;;12.05;9.07;;;;;;;;;;5092832;28;20070;-64
2022/06/28 04:33:28;;;;;;;10.05;8.23;;;;;;;;;;5092589;28;20023;-63
2022/06/28 04:35:55;;;;;;;15.05;8.85;;;;;;;;;;5092874;28;20028;-66
2022/06/28 04:38:21;;;;;;;13.70;9.43;;;;;;;;;;5092848;28;20024;-63
2022/06/28 04:40:46;;;;;;;10.02;7.97;;;;;;;;;;5092947;28;20438;-65
2022/06/28 04:43:12;;;;;;;11.57;8.25;;;;;;;;;;5092568;28;20024;-67
2022/06/28 04:45:38;;;;;;;11.73;8.05;;;;;;;;;;5092882;28;20365;-68
2022/06/28 04:48:04;;;;;;;13.43;7.32;;;;;;;;;;5091930;28;20046;-64
2022/06/28 04:50:30;;;;;;;9.57;7.32;;;;;;;;;;5090713;28;20055;-67
2022/06/28 04:52:56;;;;;;;10.50;6.95;;;;;;;;;;5091836;28;20465;-64
2022/06/28 04:55:22;;;;;;;11.10;7.43;;;;;;;;;;5092040;28;20143;-68
2022/06/28 04:57:47;;;;;;;12.35;7.95;;;;;;;;;;5092318;28;20139;-67
2022/06/28 05:00:14;;;;;;;10.68;8.27;;;;;;;;;;5092609;28;20452;-68
2022/06/28 05:02:40;;;;;;;11.93;8.57;;;;;;;;;;5091618;28;20024;-62
2022/06/28 05:05:07;;;;;;;11.65;7.88;;;;;;;;;;5092568;28;20095;-64
2022/06/28 05:07:34;;;;;;;10.98;7.95;;;;;;;;;;5092322;28;20111;-65
2022/06/28 05:10:00;;;;;;;11.88;8.43;;;;;;;;;;5092476;28;20020;-66
2022/06/28 05:12:26;;;;;;;9.40;7.40;;;;;;;;;;5092202;28;20056;-67
2022/06/28 05:14:51;;;;;;;12.70;8.05;;;;;;;;;;5092347;28;20055;-65
2022/06/28 05:17:17;;;;;;;10.18;7.32;;;;;;;;;;5091635;28;20121;-66
2022/06/28 05:19:43;;;;;;;8.57;7.13;;;;;;;;;;5091583;28;20024;-66
2022/06/28 05:22:08;;;;;;;13.02;6.38;;;;;;;;;;5091597;28;20061;-66
2022/06/28 05:24:35;;;;;;;9.80;5.88;;;;;;;;;;5091296;28;20040;-69
2022/06/28 05:27:01;;;;;;;12.60;6.65;;;;;;;;;;5090652;28;20412;-69
2022/06/28 05:29:27;;;;;;;9.82;6.65;;;;;;;;;;5092299;28;20401;-67
2022/06/28 05:31:52;;;;;;;9.88;6.20;;;;;;;;;;5092180;28;20024;-69
2022/06/28 05:34:18;;;;;;;9.95;5.53;;;;;;;;;;5092221;28;20024;-68
2022/06/28 05:36:44;;;;;;;7.15;5.55;;;;;;;;;;5092253;28;20440;-66
2022/06/28 05:39:10;;;;;;;8.27;5.30;;;;;;;;;;5092206;28;20028;-69
2022/06/28 05:41:36;;;;;;;9.85;4.95;;;;;;;;;;5091949;28;20024;-68
2022/06/28 05:44:02;;;;;;;9.65;5.20;;;;;;;;;;5092209;28;20111;-68
2022/06/28 05:46:28;;;;;;;5.75;4.03;;;;;;;;;;5091514;28;20228;-65
2022/06/28 05:48:54;;;;;;;6.18;3.88;;;;;;;;;;5091210;28;20035;-69
2022/06/28 05:51:19;;;;;;;7.22;3.30;;;;;;;;;;5091568;28;20051;-69
2022/06/28 05:53:45;;;;;;;4.47;3.05;;;;;;;;;;5091501;28;20038;-68
2022/06/28 05:56:11;;;;;;;5.68;3.30;;;;;;;;;;5091772;28;20555;-64
2022/06/28 05:58:36;;;;;;;4.95;3.05;;;;;;;;;;5091849;28;20028;-64
2022/06/28 06:01:03;;;;;;;5.32;3.30;;;;;;;;;;5092010;28;20465;-68
2022/06/28 06:03:29;;;;;;;6.75;3.30;;;;;;;;;;5091897;28;20020;-68
2022/06/28 06:05:55;;;;;;;7.38;3.47;;;;;;;;;;5091798;28;20024;-67
2022/06/28 06:08:21;;;;;;;5.88;3.65;;;;;;;;;;5091960;28;20534;-69
2022/06/28 06:10:46;;;;;;;7.05;3.55;;;;;;;;;;5091612;28;20026;-69
2022/06/28 06:13:12;;;;;;;6.60;3.00;;;;;;;;;;5092557;28;20486;-68
2022/06/28 06:15:38;;;;;;;7.55;3.38;;;;;;;;;;5095290;28;20437;-66
2022/06/28 06:18:03;;;;;;;7.93;3.50;;;;;;;;;;5094691;28;20028;-68
2022/06/28 06:20:29;;;;;;;6.40;2.80;;;;;;;;;;5094822;28;20067;-69
2022/06/28 06:22:54;;;;;;;6.05;2.80;;;;;;;;;;5094749;28;20028;-69
2022/06/28 06:25:20;;;;;;;8.40;3.17;;;;;;;;;;5094367;28;20075;-69
2022/06/28 06:27:46;;;;;;;6.55;2.95;;;;;;;;;;5095125;28;20048;-69
2022/06/28 06:30:12;;;;;;;5.47;2.95;;;;;;;;;;5095094;28;20032;-68
2022/06/28 06:32:37;;;;;;;5.00;2.70;;;;;;;;;;5094998;28;20388;-69
2022/06/28 06:35:03;;;;;;;6.50;2.83;;;;;;;;;;5095093;28;20028;-68
2022/06/28 06:37:29;;;;;;;7.97;2.92;;;;;;;;;;5094880;28;20108;-69
2022/06/28 06:39:54;;;;;;;5.90;3.50;;;;;;;;;;5094706;28;20036;-67
2022/06/28 06:42:20;;;;;;;8.55;3.05;;;;;;;;;;5094783;28;20106;-69
2022/06/28 06:44:46;;;;;;;7.22;3.10;;;;;;;;;;5094896;28;20047;-68
2022/06/28 06:47:12;;;;;;;6.30;2.80;;;;;;;;;;5094168;28;20028;-70
2022/06/28 06:49:37;;;;;;;6.18;3.17;;;;;;;;;;5094084;28;20475;-70
2022/06/28 06:52:03;;;;;;;7.05;3.30;;;;;;;;;;5094055;28;20027;-70
2022/06/28 06:54:29;;;;;;;4.95;2.42;;;;;;;;;;5093903;28;20020;-69
2022/06/28 06:56:54;;;;;;;4.93;3.05;;;;;;;;;;5094057;28;20024;-68
2022/06/28 06:59:20;;;;;;;5.85;2.83;;;;;;;;;;5094209;28;20461;-68
2022/06/28 07:01:45;;;;;;;5.03;3.17;;;;;;;;;;5087528;28;20063;-69
2022/06/28 07:04:11;;;;;;;8.13;3.63;;;;;;;;;;5091605;28;20032;-69
2022/06/28 07:06:37;;;;;;;7.90;2.80;;;;;;;;;;5098445;28;20028;-66
2022/06/28 07:09:04;;;;;;;8.25;2.40;;;;;;;;;;5093697;28;20070;-67
2022/06/28 07:11:30;;;;;;;5.30;2.50;;;;;;;;;;5094120;28;20078;-68
2022/06/28 07:13:55;;;;;;;5.57;2.63;;;;;;;;;;5094139;28;20028;-68
2022/06/28 07:16:21;;;;;;;7.10;2.88;;;;;;;;;;5093438;28;20035;-69
2022/06/28 07:18:46;;;;;;;4.95;2.75;;;;;;;;;;5076239;28;20047;-69
2022/06/28 07:21:12;;;;;;;6.03;2.47;;;;;;;;;;5073855;28;20020;-68
2022/06/28 07:23:38;;;;;;;4.43;2.70;;;;;;;;;;5073295;28;20040;-68
2022/06/28 07:26:04;;;;;;;6.97;2.53;;;;;;;;;;5072859;28;20028;-68
2022/06/28 07:28:30;;;;;;;3.40;2.30;;;;;;;;;;5073349;28;20103;-69
2022/06/28 07:30:56;;;;;;;6.13;2.80;;;;;;;;;;5073563;28;20024;-69
2022/06/28 07:33:22;;;;;;;6.05;2.42;;;;;;;;;;5073398;28;20020;-68
2022/06/28 07:35:47;;;;;;;5.38;2.33;;;;;;;;;;5073357;28;20103;-68
2022/06/28 07:38:14;;;;;;;4.25;2.33;;;;;;;;;;5073072;28;20020;-69
2022/06/28 07:40:40;;;;;;;4.00;2.28;;;;;;;;;;5073135;28;20054;-67
2022/06/28 07:43:05;;;;;;;12.65;4.10;;;;;;;;;;5073277;28;20492;-66
2022/06/28 07:45:36;;;;;;;4.80;2.78;;;;;;;;;;5073292;28;20060;-68
2022/06/28 07:48:02;;;;;;;3.70;2.28;;;;;;;;;;5080306;28;20043;-67
2022/06/28 07:53:12;;;;;;;8.95;2.40;;;;;;;;;;5091240;28;20560;-67
2022/06/28 07:55:37;;;;;;;6.97;2.38;;;;;;;;;;5090515;28;20058;-68
2022/06/28 07:58:03;;;;;;;6.53;2.33;;;;;;;;;;5092075;28;20048;-66
2022/06/28 08:00:28;;;;;;;3.80;1.95;;;;;;;;;;5092215;28;20020;-62
2022/06/28 08:02:54;;;;;;;4.57;2.42;;;;;;;;;;5092143;28;20365;-63
2022/06/28 08:05:19;;;;;;;4.43;2.40;;;;;;;;;;5091829;28;20020;-64
2022/06/28 08:07:45;;;;;;;4.32;2.60;;;;;;;;;;5091784;28;20530;-64
2022/06/28 08:10:11;;;;;;;5.35;2.35;;;;;;;;;;5091705;28;20024;-65
2022/06/28 08:12:37;;;;;;;4.60;2.13;;;;;;;;;;5091815;28;20058;-68
2022/06/28 08:15:04;;;;;;;4.07;1.90;;;;;;;;;;5091903;28;20016;-61
2022/06/28 08:17:30;;;;;;;4.95;1.92;;;;;;;;;;5091628;28;20526;-66
2022/06/28 08:19:56;;;;;;;2.70;1.90;;;;;;;;;;5089301;28;20028;-62
2022/06/28 08:22:21;;;;;;;2.50;1.75;;;;;;;;;;5091559;28;20027;-61
2022/06/28 08:24:47;;;;;;;4.93;1.80;;;;;;;;;;5091848;28;20040;-65
2022/06/28 08:27:13;;;;;;;3.53;1.80;;;;;;;;;;5091362;28;20024;-66
2022/06/28 08:29:42;;;;;;;3.72;1.70;;;;;;;;;;5091505;28;20059;-66
2022/06/28 08:32:09;;;;;;;4.32;1.52;;;;;;;;;;5091013;28;20067;-66
2022/06/28 08:34:35;;;;;;;5.28;1.77;;;;;;;;;;5091180;28;20100;-66
2022/06/28 08:37:00;;;;;;;5.95;2.55;;;;;;;;;;5091283;28;20451;-66
2022/06/28 08:39:26;;;;;;;6.68;2.10;;;;;;;;;;5091398;28;20077;-66
2022/06/28 08:41:53;;;;;;;9.00;2.55;;;;;;;;;;5091364;28;20020;-65
2022/06/28 08:44:18;;;;;;;6.63;2.30;;;;;;;;;;5091610;28;20035;-66
2022/06/28 08:46:48;;;;;;;3.28;1.80;;;;;;;;;;5092064;28;20028;-65
2022/06/28 08:49:16;;;;;;;4.10;1.80;;;;;;;;;;5092682;28;20024;-66
2022/06/28 08:51:42;;;;;;;9.77;2.10;;;;;;;;;;5092772;28;20024;-65
2022/06/28 08:54:08;;;;;;;4.93;1.40;;;;;;;;;;5092747;28;20444;-64
2022/06/28 08:56:38;;;;;;;3.85;1.50;;;;;;;;;;5088291;28;20024;-66
2022/06/28 08:59:06;;;;;;;;;;;;;;;;;;5084013;28;20035;-66
2022/06/28 09:01:31;;;;;;;3.45;1.67;;;;;;;;;;5092627;28;19994;-65
2022/06/28 09:04:00;;;;;;;3.80;1.30;;;;;;;;;;5092362;28;20063;-67
2022/06/28 09:06:25;;;;;;;3.95;1.60;;;;;;;;;;5092187;28;20046;-66
2022/06/28 09:08:51;;;;;;;4.68;2.08;;;;;;;;;;5092318;28;20035;-65
2022/06/28 09:11:16;;;;;;;3.03;1.23;;;;;;;;;;5092446;28;20073;-66
2022/06/28 09:13:42;;;;;;;6.55;1.75;;;;;;;;;;5092280;28;20081;-65
2022/06/28 09:16:08;;;;;;;3.00;1.60;;;;;;;;;;5092248;28;20039;-66
2022/06/28 09:18:36;;;;;;;3.13;1.30;;;;;;;;;;5092266;28;20040;-67
2022/06/28 09:21:05;;;;;;;5.10;1.38;;;;;;;;;;5092200;28;20024;-63
2022/06/28 09:23:33;;;;;;;3.78;1.25;;;;;;;;;;5092138;28;20105;-66
2022/06/28 09:26:19;;;;;;;4.25;1.30;;;;;;;;;;5092305;28;20036;-64
2022/06/28 09:28:50;;;;;;;4.60;1.33;;;;;;;;;;5092236;28;20028;-66
2022/06/28 09:31:24;;;;;;;3.75;1.20;;;;;;;;;;5092237;28;20024;-66
2022/06/28 09:34:04;;;;;;;4.85;1.20;;;;;;;;;;5091948;28;20085;-66
2022/06/28 09:36:33;;;;;;;3.03;1.20;;;;;;;;;;5092256;28;20039;-65
2022/06/28 09:39:16;;;;;;;3.00;1.20;;;;;;;;;;5092253;28;20020;-63
2022/06/28 09:41:50;;;;;;;8.15;4.32;;;;;;;;;;5092306;28;20031;-66
2022/06/28 09:44:17;;;;;;;2.63;1.13;;;;;;;;;;5092084;28;20016;-67
2022/06/28 09:46:44;;;;;;;2.30;1.20;;;;;;;;;;5091616;28;20052;-65
2022/06/28 09:49:10;;;;;;;4.43;1.60;;;;;;;;;;5093851;28;20125;-66
2022/06/28 09:51:37;;;;;;;2.20;1.30;;;;;;;;;;5095923;28;20056;-66
2022/06/28 09:54:06;;;;;;;2.55;1.00;;;;;;;;;;5095767;28;20024;-66
2022/06/28 09:56:40;;;;;;;4.15;1.10;;;;;;;;;;5095747;28;20028;-66
2022/06/28 09:59:06;;;;;;;2.30;1.08;;;;;;;;;;5095831;28;20024;-66
2022/06/28 10:01:33;;;;;;;4.45;1.20;;;;;;;;;;5094979;28;20028;-62
2022/06/28 10:03:59;;;;;;;1.42;0.93;;;;;;;;;;5088902;28;20073;-65
2022/06/28 10:06:25;;;;;;;4.28;1.20;;;;;;;;;;5087326;28;20517;-62
2022/06/28 10:08:51;;;;;;;3.35;1.10;;;;;;;;;;5093536;28;20031;-66
2022/06/28 10:11:18;;;;;;;8.10;1.30;;;;;;;;;;5091871;28;20028;-66
2022/06/28 10:16:41;;;;;;;6.60;1.10;;;;;;;;;;5093716;28;20389;-66
2022/06/28 10:19:07;;;;;;;1.83;0.95;;;;;;;;;;5092839;28;20124;-64
2022/06/28 10:21:43;;;;;;;2.33;0.85;;;;;;;;;;5093785;28;20185;-66
2022/06/28 10:24:08;;;;;;;1.60;0.80;;;;;;;;;;5094287;28;20098;-66
2022/06/28 10:26:34;;;;;;;3.55;1.00;;;;;;;;;;5095082;28;20051;-66
2022/06/28 10:29:05;;;;;;;2.70;0.93;;;;;;;;;;5095313;28;20370;-65
2022/06/28 10:31:34;;;;;;;1.48;0.93;;;;;;;;;;5094866;28;20024;-65
2022/06/28 10:34:02;;;;;;;3.17;1.00;;;;;;;;;;5094314;28;20541;-65
2022/06/28 10:36:50;;;;;;;2.80;1.00;;;;;;;;;;5094673;28;20043;-66
2022/06/28 10:39:19;;;;;;;2.20;1.02;;;;;;;;;;5094984;28;20034;-65
2022/06/28 10:41:52;;;;;;;5.22;1.17;;;;;;;;;;5095068;28;20020;-66
2022/06/28 10:44:21;;;;;;;4.15;1.10;;;;;;;;;;5094820;28;20032;-64
2022/06/28 10:47:05;;;;;;;2.28;1.02;;;;;;;;;;5094422;28;20026;-65
2022/06/28 10:49:44;;;;;;;2.85;1.00;;;;;;;;;;5094903;28;20575;-65
2022/06/28 10:52:14;;;;;;;2.95;0.80;;;;;;;;;;5094385;28;20392;-66
2022/06/28 10:54:41;;;;;;;;;;;;;;;;;;5095005;28;20473;-65
2022/06/28 10:57:35;;;;;;;4.32;0.80;;;;;;;;;;5094792;28;20242;-66
2022/06/28 11:00:07;;;;;;;2.55;0.70;;;;;;;;;;5093482;28;20431;-67
2022/06/28 11:02:46;;;;;;;4.20;0.80;;;;;;;;;;5094177;28;20016;-66
2022/06/28 11:05:12;;;;;;;1.30;0.80;;;;;;;;;;5094479;28;20024;-65
2022/06/28 11:07:40;;;;;;;4.15;0.80;;;;;;;;;;5094343;28;20126;-66
2022/06/28 11:10:14;;;;;;;2.75;1.17;;;;;;;;;;5094268;28;20531;-66
2022/06/28 11:12:42;;;;;;;3.58;1.00;;;;;;;;;;5094556;28;20026;-65
2022/06/28 11:15:12;;;;;;;5.22;1.00;;;;;;;;;;5094146;28;20376;-63
2022/06/28 11:17:41;;;;;;;1.55;1.05;;;;;;;;;;5094280;28;20024;-67
2022/06/28 11:20:14;;;;;;;2.30;1.50;;;;;;;;;;5094245;28;20388;-66
2022/06/28 11:22:44;;;;;;;1.83;1.23;;;;;;;;;;5094283;28;20078;-67
2022/06/28 11:25:19;;;;;;;2.35;1.00;;;;;;;;;;5093806;28;20537;-67
2022/06/28 11:27:47;;;;;;;1.75;0.90;;;;;;;;;;5094070;28;20059;-66
2022/06/28 11:30:15;;;;;;;0.77;0.70;;;;;;;;;;5093885;28;20099;-66
2022/06/28 11:32:48;;;;;;;4.13;0.95;;;;;;;;;;5093836;28;20415;-66
2022/06/28 11:35:23;;;;;;;2.38;0.80;;;;;;;;;;5092687;28;20027;-66
2022/06/28 11:38:02;;;;;;;2.28;0.90;;;;;;;;;;5092446;28;20078;-67
2022/06/28 11:40:38;;;;;;;1.83;1.00;;;;;;;;;;5092520;28;20048;-66
2022/06/28 11:43:05;;;;;;;2.53;0.90;;;;;;;;;;5092523;28;20027;-65
2022/06/28 11:45:33;;;;;;;1.90;1.10;;;;;;;;;;5092146;28;20024;-63
2022/06/28 11:48:14;;;;;;;2.40;0.98;;;;;;;;;;5092093;28;20473;-65
2022/06/28 11:50:42;;;;;;;1.95;0.90;;;;;;;;;;5089373;28;20032;-66
2022/06/28 11:53:08;;;;;;;3.03;0.90;;;;;;;;;;5092394;28;20050;-65
2022/06/28 11:55:37;;;;;;;2.65;0.80;;;;;;;;;;5092021;28;20024;-66
2022/06/28 11:58:20;;;;;;;1.20;0.87;;;;;;;;;;5092172;28;20114;-64
2022/06/28 12:01:07;;;;;;;4.13;0.80;;;;;;;;;;5091464;28;20493;-65
2022/06/28 12:03:36;;;;;;;2.97;0.77;;;;;;;;;;5089600;28;20028;-67
2022/06/28 12:06:03;;;;;;;2.80;0.80;;;;;;;;;;5092027;28;20380;-66
2022/06/28 12:08:51;;;;;;;1.23;0.70;;;;;;;;;;5091884;28;20501;-66
2022/06/28 12:11:36;;;;;;;1.23;0.70;;;;;;;;;;5089839;28;20027;-67
2022/06/28 12:14:02;;;;;;;3.75;0.85;;;;;;;;;;5090376;28;20016;-66
2022/06/28 12:16:56;;;;;;;2.42;0.85;;;;;;;;;;5092493;28;20069;-67
2022/06/28 12:19:25;;;;;;;1.52;0.98;;;;;;;;;;5072803;28;20408;-66
2022/06/28 12:21:58;;;;;;;3.35;0.90;;;;;;;;;;5072715;28;20087;-67
2022/06/28 12:24:56;;;;;;;2.53;0.70;;;;;;;;;;5072379;28;20474;-62
2022/06/28 12:27:23;;;;;;;1.35;0.80;;;;;;;;;;5010583;28;20108;-66
2022/06/28 12:29:50;;;;;;;2.60;0.90;;;;;;;;;;5010885;28;20060;-67
2022/06/28 12:32:16;;;;;;;1.15;0.80;;;;;;;;;;5010754;28;20026;-66
2022/06/28 12:34:42;;;;;;;1.42;0.90;;;;;;;;;;5012539;28;20038;-67
2022/06/28 12:37:09;;;;;;;1.80;0.63;;;;;;;;;;5017279;28;20102;-67
2022/06/28 12:39:34;;;;;;;2.20;0.80;;;;;;;;;;5020452;28;20033;-66
2022/06/28 12:42:00;;;;;;;4.65;0.80;;;;;;;;;;5030296;28;20047;-64
2022/06/28 12:44:25;;;;;;;5.15;1.00;;;;;;;;;;5010648;28;20057;-66
2022/06/28 12:46:52;;;;;;;1.90;0.85;;;;;;;;;;5010545;28;20041;-66
2022/06/28 12:49:19;;;;;;;1.10;0.70;;;;;;;;;;5010319;28;20041;-66
2022/06/28 12:51:44;;;;;;;3.20;0.90;;;;;;;;;;5029744;28;20060;-66
2022/06/28 12:54:10;;;;;;;2.08;0.70;;;;;;;;;;5029999;28;20463;-66
2022/06/28 12:56:36;;;;;;;2.40;0.80;;;;;;;;;;5029848;28;20054;-67
2022/06/28 12:59:01;;;;;;;2.30;0.77;;;;;;;;;;5030038;28;20041;-67
2022/06/28 13:01:27;;;;;;;3.40;0.98;;;;;;;;;;5029158;28;20382;-65
2022/06/28 13:03:53;;;;;;;3.67;1.13;;;;;;;;;;5067499;28;20147;-66
2022/06/28 13:06:19;;;;;;;3.55;0.70;;;;;;;;;;5072159;28;20366;-65
2022/06/28 13:08:45;;;;;;;1.98;0.80;;;;;;;;;;5072065;28;20029;-66
2022/06/28 13:11:12;;;;;;;3.08;0.75;;;;;;;;;;5072057;28;20644;-65
2022/06/28 13:13:38;;;;;;;3.17;0.88;;;;;;;;;;5072388;28;20107;-66
2022/06/28 13:16:04;;;;;;;2.88;0.80;;;;;;;;;;5071919;28;20103;-66
2022/06/28 13:18:29;;;;;;;2.03;0.90;;;;;;;;;;5086927;28;20038;-66
2022/06/28 13:20:55;;;;;;;1.63;0.70;;;;;;;;;;5092179;28;20016;-66
2022/06/28 13:23:21;;;;;;;1.58;0.93;;;;;;;;;;5093037;28;20032;-66
2022/06/28 13:25:47;;;;;;;5.25;0.88;;;;;;;;;;5096202;28;20028;-66
2022/06/28 13:28:14;;;;;;;2.40;0.90;;;;;;;;;;5096147;28;20039;-65
2022/06/28 13:30:41;;;;;;;2.80;0.90;;;;;;;;;;5096227;28;20021;-65
2022/06/28 13:33:08;;;;;;;2.45;0.80;;;;;;;;;;5096267;28;20034;-65
2022/06/28 13:35:34;;;;;;;4.82;1.02;;;;;;;;;;5096017;28;20031;-66
2022/06/28 13:37:59;;;;;;;1.27;0.88;;;;;;;;;;5096235;28;20469;-64
2022/06/28 13:40:25;;;;;;;1.95;0.90;;;;;;;;;;5095861;28;20028;-66
2022/06/28 13:42:51;;;;;;;2.70;0.98;;;;;;;;;;5095922;28;20075;-67
2022/06/28 13:45:17;;;;;;;3.85;1.00;;;;;;;;;;5095703;28;20039;-66
2022/06/28 13:47:43;;;;;;;2.35;0.95;;;;;;;;;;5095714;28;20050;-66
2022/06/28 13:50:09;;;;;;;3.38;1.02;;;;;;;;;;5095472;28;20024;-67
2022/06/28 13:52:36;;;;;;;2.55;0.90;;;;;;;;;;5095753;28;20017;-66
2022/06/28 13:55:03;;;;;;;1.67;0.80;;;;;;;;;;5095596;28;20093;-65
2022/06/28 13:57:28;;;;;;;2.75;0.90;;;;;;;;;;5095678;28;20388;-66
2022/06/28 13:59:55;;;;;;;6.57;0.95;;;;;;;;;;5094416;28;20039;-66
2022/06/28 14:02:22;;;;;;;2.78;0.85;;;;;;;;;;5095630;28;20108;-66
2022/06/28 14:04:48;;;;;;;2.38;0.90;;;;;;;;;;5095499;28;20028;-66
2022/06/28 14:07:14;;;;;;;5.63;0.93;;;;;;;;;;5095604;28;20032;-65
2022/06/28 14:09:40;;;;;;;1.50;0.80;;;;;;;;;;5095423;28;20377;-63
2022/06/28 14:12:06;;;;;;;3.08;0.85;;;;;;;;;;5095428;28;20024;-67
2022/06/28 14:14:31;;;;;;;2.00;0.80;;;;;;;;;;5095259;28;20046;-65
2022/06/28 14:16:57;;;;;;;2.17;0.85;;;;;;;;;;5093102;28;20023;-66
2022/06/28 14:19:22;;;;;;;2.25;0.80;;;;;;;;;;5075123;28;20043;-66
2022/06/28 14:21:48;;;;;;;2.05;1.00;;;;;;;;;;5075160;28;20024;-66
2022/06/28 14:24:14;;;;;;;2.50;0.90;;;;;;;;;;5074470;28;20040;-66
2022/06/28 14:26:39;;;;;;;2.03;0.93;;;;;;;;;;5074802;28;20032;-65
2022/06/28 14:29:05;;;;;;;2.92;1.05;;;;;;;;;;5074669;28;20555;-66
2022/06/28 14:31:30;;;;;;;5.30;1.05;;;;;;;;;;5074928;28;20416;-66
2022/06/28 14:33:56;;;;;;;1.27;0.77;;;;;;;;;;5074650;28;20024;-66
2022/06/28 14:36:22;;;;;;;2.60;0.90;;;;;;;;;;5074786;28;20032;-67
2022/06/28 14:38:47;;;;;;;1.08;0.80;;;;;;;;;;5074374;28;20107;-65
2022/06/28 14:41:15;;;;;;;2.30;0.68;;;;;;;;;;5074593;28;20477;-65
2022/06/28 14:43:40;;;;;;;3.58;0.85;;;;;;;;;;5074773;28;20025;-66
2022/06/28 14:46:06;;;;;;;2.35;0.80;;;;;;;;;;5074201;28;20046;-66
2022/06/28 14:48:31;;;;;;;1.67;0.80;;;;;;;;;;5074530;28;20078;-66
2022/06/28 14:50:57;;;;;;;6.35;0.90;;;;;;;;;;5074367;28;20028;-66